Time;durP1;ratioP1;P1;durP2;ratioP2;P2;SDS_P1;SDS_P2;PMS_P1;PMS_P2;Temp;Humidity;BMP_temperature;BMP_pressure;BME280_temperature;BME280_humidity;BME280_pressure;Samples;Min_cycle;Max_cycle;Signal;HPM_P1;HPM_P2
2023/08/04 13:28:34;;;;;;;;;0.00;0.00;;;;;-143.90;53.90;73347.13;4909429;27;104102;-75
2023/08/04 13:31:05;;;;;;;;;0.00;0.00;;;;;-143.90;54.67;73345.06;4981912;28;101854;-74
2023/08/04 13:33:33;;;;;;;;;0.00;0.00;;;;;-143.90;54.14;73340.94;4956730;28;104771;-74
2023/08/04 13:36:00;;;;;;;;;0.00;0.00;;;;;-143.90;52.79;73338.84;4982234;28;102043;-74
2023/08/04 13:38:27;;;;;;;;;0.00;0.00;;;;;-143.90;53.28;73340.94;4977299;28;102072;-74
2023/08/04 13:40:54;;;;;;;;;0.00;0.00;;;;;-143.90;52.86;73343.00;4984476;28;101779;-74
2023/08/04 13:43:24;;;;;;;;;0.00;0.00;;;;;-143.90;53.14;73330.59;4964185;28;103714;-74
2023/08/04 13:45:51;;;;;;;;;0.00;0.00;;;;;-143.90;53.86;73312.00;4978230;28;101885;-74
2023/08/04 13:48:20;;;;;;;;;0.00;0.00;;;;;-143.90;52.22;73301.66;4975319;28;101696;-74
2023/08/04 13:50:47;;;;;;;;;1.00;1.00;;;;;-143.90;52.63;73305.78;4964275;28;102903;-74
2023/08/04 13:53:14;;;;;;;;;0.00;0.00;;;;;-143.90;53.73;73299.59;4978466;28;103410;-74
2023/08/04 13:55:41;;;;;;;;;0.00;0.00;;;;;-143.90;52.37;73297.53;4983441;28;101971;-75
2023/08/04 13:58:08;;;;;;;;;0.00;0.00;;;;;-143.90;51.87;73297.53;4957187;28;102246;-74
2023/08/04 14:00:39;;;;;;;;;0.67;0.67;;;;;-143.90;52.92;73289.25;4963622;28;102107;-74
2023/08/04 14:03:06;;;;;;;;;0.00;0.00;;;;;-143.90;53.68;73312.00;4975431;28;103524;-74
2023/08/04 14:05:33;;;;;;;;;0.00;0.00;;;;;-143.90;52.94;73312.00;4978612;28;101578;-74
2023/08/04 14:08:04;;;;;;;;;0.33;0.33;;;;;-143.90;52.36;73305.78;4958358;28;101639;-74
2023/08/04 14:10:31;;;;;;;;;0.00;0.00;;;;;-143.90;52.87;73303.72;4979687;27;102468;-76
2023/08/04 14:12:58;;;;;;;;;0.00;0.00;;;;;-143.90;51.64;73291.31;4975755;28;103520;-76
2023/08/04 14:15:25;;;;;;;;;0.00;0.00;;;;;-143.90;51.82;73295.47;4975771;28;101648;-76
2023/08/04 14:17:53;;;;;;;;;0.00;0.00;;;;;-143.90;52.32;73295.47;4975728;28;101716;-73
2023/08/04 14:20:32;;;;;;;;;0.00;0.00;;;;;-143.90;52.01;73312.00;4963121;28;102607;-74
2023/08/04 14:23:17;;;;;;;;;0.00;0.00;;;;;-143.90;53.07;73309.94;4980695;28;103414;-74
2023/08/04 14:26:04;;;;;;;;;1.00;0.00;;;;;-143.90;53.04;73336.78;4979153;27;101851;-74
2023/08/04 14:28:48;;;;;;;;;1.00;1.00;;;;;-143.90;53.05;73353.31;4978839;28;101834;-74
2023/08/04 14:31:35;;;;;;;;;0.00;0.00;;;;;-143.90;52.14;73353.31;4993344;28;101800;-75
2023/08/04 14:34:16;;;;;;;;;0.00;0.00;;;;;-143.90;52.29;73359.53;5002973;28;104724;-74
2023/08/04 14:37:10;;;;;;;;;0.33;0.00;;;;;-143.90;53.22;73369.84;4992709;27;101485;-74
2023/08/04 14:39:55;;;;;;;;;0.00;0.00;;;;;-143.90;54.32;73378.13;4987693;27;101913;-74
2023/08/04 14:42:38;;;;;;;;;0.33;0.00;;;;;-143.90;52.90;73376.06;5005599;27;101814;-74
2023/08/04 14:45:25;;;;;;;;;0.00;0.00;;;;;-143.90;53.29;73378.13;5011258;27;102372;-74
2023/08/04 14:48:04;;;;;;;;;0.00;0.00;;;;;-143.90;53.46;73378.13;5009230;28;101797;-74
2023/08/04 14:50:31;;;;;;;;;0.00;0.00;;;;;-143.90;54.20;73388.44;5005673;28;102116;-74
2023/08/04 14:52:58;;;;;;;;;0.33;0.33;;;;;-143.90;53.63;73382.25;5011680;27;102491;-74
2023/08/04 14:55:25;;;;;;;;;1.00;0.33;;;;;-143.90;54.64;73378.13;5018832;27;102264;-74
2023/08/04 14:57:52;;;;;;;;;0.33;0.33;;;;;-143.90;53.84;73380.19;5004200;27;101448;-74
2023/08/04 15:00:19;;;;;;;;;0.00;0.00;;;;;-143.90;54.53;73374.00;5010979;27;101502;-75
2023/08/04 15:02:47;;;;;;;;;0.00;0.00;;;;;-143.90;54.41;73374.00;5007616;28;102012;-75
2023/08/04 15:05:14;;;;;;;;;0.00;0.00;;;;;-143.90;54.63;73365.72;5009135;27;102937;-75
2023/08/04 15:07:42;;;;;;;;;0.00;0.00;;;;;-143.90;53.71;73357.47;5004119;27;101716;-74
2023/08/04 15:10:09;;;;;;;;;1.00;1.00;;;;;-143.90;52.23;73374.00;4991374;28;101874;-74
2023/08/04 15:12:37;;;;;;;;;0.00;0.00;;;;;-143.90;54.48;73361.59;4994199;28;101921;-74
2023/08/04 15:15:04;;;;;;;;;0.00;0.00;;;;;-143.90;54.57;73361.59;4997879;28;103546;-74
2023/08/04 15:17:32;;;;;;;;;1.00;0.00;;;;;-143.90;53.80;73363.66;4987730;28;101920;-74
2023/08/04 15:20:00;;;;;;;;;0.00;0.00;;;;;-143.90;54.61;73378.13;5009262;27;101591;-74
2023/08/04 15:22:27;;;;;;;;;1.00;0.00;;;;;-143.90;54.97;73380.19;4993892;28;101618;-75
2023/08/04 15:24:54;;;;;;;;;1.00;1.00;;;;;-143.90;54.30;73411.19;4991151;28;103597;-75
2023/08/04 15:27:21;;;;;;;;;1.00;1.00;;;;;-143.90;55.74;73423.59;5003964;27;101588;-75
2023/08/04 15:29:48;;;;;;;;;0.33;0.33;;;;;-143.90;57.47;73440.13;4998700;27;101818;-75
2023/08/04 15:32:15;;;;;;;;;1.00;1.00;;;;;-143.90;56.11;73460.78;5010036;28;101802;-76
2023/08/04 15:34:42;;;;;;;;;2.00;2.00;;;;;-143.90;57.68;73487.66;4988933;27;103631;-75
2023/08/04 15:37:09;;;;;;;;;2.00;2.00;;;;;-143.90;57.27;73495.91;5008374;27;101807;-75
2023/08/04 15:39:37;;;;;;;;;0.00;0.00;;;;;-143.90;57.97;73469.03;5005403;27;102993;-75
2023/08/04 15:42:05;;;;;;;;;1.00;0.00;;;;;-143.90;57.03;73464.91;5012452;27;101759;-75
2023/08/04 15:44:32;;;;;;;;;0.00;0.00;;;;;-143.90;54.50;73458.72;5010434;27;102907;-75
2023/08/04 15:46:59;;;;;;;;;1.00;1.00;;;;;-143.90;54.97;73444.25;4998066;27;103197;-75
2023/08/04 15:49:26;;;;;;;;;0.00;0.00;;;;;-143.90;53.03;73423.59;4993113;27;101594;-75
2023/08/04 15:51:53;;;;;;;;;2.00;2.00;;;;;-143.90;55.56;73444.25;4984235;28;102751;-75
2023/08/04 15:54:21;;;;;;;;;1.67;1.67;;;;;-143.90;55.80;73446.31;5001769;27;103347;-75
2023/08/04 15:56:48;;;;;;;;;0.00;0.00;;;;;-143.90;56.24;73456.66;5008416;27;101517;-75
2023/08/04 15:59:15;;;;;;;;;1.00;1.00;;;;;-143.90;57.89;73454.59;5010715;27;101810;-75
2023/08/04 16:01:42;;;;;;;;;1.67;1.00;;;;;-143.90;57.38;73456.66;4996719;28;101752;-75
2023/08/04 16:04:09;;;;;;;;;0.33;0.33;;;;;-143.90;57.11;73473.19;5009367;27;103337;-75
2023/08/04 16:06:37;;;;;;;;;0.00;0.00;;;;;-143.90;54.48;73487.66;4993828;27;102014;-75
2023/08/04 16:09:04;;;;;;;;;1.00;1.00;;;;;-143.90;56.55;73518.66;5008140;27;101541;-75
2023/08/04 16:11:31;;;;;;;;;2.33;2.00;;;;;-143.90;57.02;73539.31;5010580;28;101872;-75
2023/08/04 16:13:58;;;;;;;;;2.00;1.00;;;;;-143.90;58.38;73539.31;5008811;28;103835;-75
2023/08/04 16:16:25;;;;;;;;;2.00;1.00;;;;;-143.90;56.78;73547.56;4990695;28;101529;-75
2023/08/04 16:18:53;;;;;;;;;1.00;1.00;;;;;-143.90;58.13;73564.09;5004460;27;101463;-75
2023/08/04 16:21:20;;;;;;;;;1.00;1.00;;;;;-143.90;58.51;73580.63;4993286;27;101699;-75
2023/08/04 16:23:47;;;;;;;;;1.00;1.00;;;;;-143.90;60.23;73576.50;5010602;27;102833;-76
2023/08/04 16:26:14;;;;;;;;;0.33;0.33;;;;;-143.90;61.44;73564.09;5009001;27;101703;-74
2023/08/04 16:28:41;;;;;;;;;0.00;0.00;;;;;-143.90;61.00;73551.72;4989720;27;102154;-75
2023/08/04 16:31:08;;;;;;;;;0.00;0.00;;;;;-143.90;60.92;73543.44;5005385;28;102354;-75
2023/08/04 16:33:35;;;;;;;;;0.33;0.33;;;;;-143.90;60.40;73531.03;5008309;27;103218;-75
2023/08/04 16:36:06;;;;;;;;;1.00;0.00;;;;;-143.90;60.96;73539.31;4990254;28;101841;-75
2023/08/04 16:38:33;;;;;;;;;0.00;0.00;;;;;-143.90;61.31;73549.63;4991811;27;101855;-75
2023/08/04 16:41:00;;;;;;;;;1.67;1.67;;;;;-143.90;61.48;73564.09;5015523;27;101588;-75
2023/08/04 16:43:27;;;;;;;;;1.00;1.00;;;;;-143.90;60.10;73586.84;5010243;27;103289;-74
2023/08/04 16:45:57;;;;;;;;;1.00;1.00;;;;;-143.90;61.89;73580.63;4987369;27;102010;-74
2023/08/04 16:48:24;;;;;;;;;1.00;1.00;;;;;-143.90;60.81;73590.97;5001635;27;101523;-75
2023/08/04 16:50:52;;;;;;;;;1.00;1.00;;;;;-143.90;62.61;73599.25;5007163;27;102581;-74
2023/08/04 16:53:19;;;;;;;;;1.67;1.67;;;;;-143.90;64.05;73609.56;5003788;28;103444;-74
2023/08/04 16:55:49;;;;;;;;;1.00;1.00;;;;;-143.90;64.99;73609.56;5014261;27;101975;-74
2023/08/04 16:58:17;;;;;;;;;3.67;3.00;;;;;-143.90;63.67;73630.25;5013634;27;101795;-74
2023/08/04 17:00:45;;;;;;;;;2.33;1.67;;;;;-143.90;64.72;73626.09;4992343;27;101808;-74
2023/08/04 17:03:12;;;;;;;;;2.00;2.00;;;;;-143.90;64.12;73634.38;4997114;27;103677;-74
2023/08/04 17:05:40;;;;;;;;;1.67;1.00;;;;;-143.90;63.77;73642.63;5007999;27;101522;-74
2023/08/04 17:08:07;;;;;;;;;3.00;2.33;;;;;-143.90;64.09;73642.63;4986304;28;102073;-74
2023/08/04 17:10:37;;;;;;;;;2.00;2.00;;;;;-143.90;62.84;73642.63;5004608;27;102114;-74
2023/08/04 17:13:05;;;;;;;;;2.33;2.00;;;;;-143.90;62.85;73636.44;4991789;27;103343;-74
2023/08/04 17:15:33;;;;;;;;;2.33;2.00;;;;;-143.90;64.07;73634.38;5012622;27;101835;-74
2023/08/04 17:18:04;;;;;;;;;1.00;1.00;;;;;-143.90;65.42;73626.09;5008695;27;101501;-75
2023/08/04 17:20:31;;;;;;;;;2.00;2.00;;;;;-143.90;65.34;73632.31;5012291;27;101790;-75
2023/08/04 17:22:58;;;;;;;;;2.00;1.00;;;;;-143.90;63.45;73646.78;5001266;28;102639;-75
2023/08/04 17:25:26;;;;;;;;;1.00;1.00;;;;;-143.90;62.79;73659.16;5010778;27;101524;-74
2023/08/04 17:27:52;;;;;;;;;2.67;2.67;;;;;-143.90;62.18;73650.91;5004928;27;101914;-75
2023/08/04 17:30:19;;;;;;;;;2.00;2.00;;;;;-143.90;62.12;73659.16;5012867;27;101610;-75
2023/08/04 17:32:48;;;;;;;;;2.00;2.00;;;;;-143.90;63.88;73665.38;5010228;27;105103;-75
2023/08/04 17:35:15;;;;;;;;;1.00;1.00;;;;;-143.90;64.52;73655.03;4988148;28;101794;-75
2023/08/04 17:37:42;;;;;;;;;2.00;2.00;;;;;-143.90;66.15;73655.03;4995640;28;102068;-74
2023/08/04 17:40:10;;;;;;;;;0.33;0.33;;;;;-143.90;66.86;73659.16;5010935;27;101791;-74
2023/08/04 17:42:37;;;;;;;;;1.00;1.00;;;;;-143.90;66.92;73681.91;4989425;27;103310;-74
2023/08/04 17:45:05;;;;;;;;;4.00;3.00;;;;;-143.90;67.13;73700.50;5004807;27;101771;-75
2023/08/04 17:47:32;;;;;;;;;2.33;2.33;;;;;-143.90;67.67;73708.78;5003337;28;102707;-74
2023/08/04 17:49:59;;;;;;;;;3.00;3.00;;;;;-143.90;67.40;73729.44;5013594;27;101851;-74
2023/08/04 17:52:26;;;;;;;;;4.00;4.00;;;;;-143.90;67.68;73729.44;4992151;27;103086;-75
2023/08/04 17:54:53;;;;;;;;;4.00;4.00;;;;;-143.90;68.13;73721.16;5008292;27;101904;-74
2023/08/04 17:57:20;;;;;;;;;1.33;1.33;;;;;-143.90;67.80;73721.16;5002015;27;101764;-75
2023/08/04 17:59:51;;;;;;;;;2.33;2.33;;;;;-143.90;69.25;73712.91;5006524;28;102038;-75
2023/08/04 18:02:18;;;;;;;;;3.00;2.33;;;;;-143.90;69.33;73712.91;5004578;28;103081;-75
2023/08/04 18:04:48;;;;;;;;;3.00;2.00;;;;;-143.90;70.04;73729.44;4989891;27;101847;-75
2023/08/04 18:07:16;;;;;;;;;3.00;3.00;;;;;-143.90;68.98;73752.16;5008370;27;101802;-75
2023/08/04 18:09:43;;;;;;;;;2.00;2.00;;;;;-143.90;69.45;73772.84;5015157;27;101901;-75
2023/08/04 18:12:10;;;;;;;;;2.33;2.33;;;;;-143.90;70.21;73781.09;5005337;27;103655;-74
2023/08/04 18:14:37;;;;;;;;;4.00;4.00;;;;;-143.90;70.51;73793.50;5007625;27;101737;-75
2023/08/04 18:17:05;;;;;;;;;2.00;2.00;;;;;-143.90;71.56;73791.44;5002282;27;101870;-75
2023/08/04 18:19:32;;;;;;;;;3.00;2.67;;;;;-143.90;71.35;73779.03;4986346;28;103414;-76
2023/08/04 18:21:59;;;;;;;;;2.00;2.00;;;;;-143.90;72.09;73799.69;5005872;27;103405;-76
2023/08/04 18:24:26;;;;;;;;;3.00;2.00;;;;;-143.90;72.77;73810.03;4997537;28;101701;-76
2023/08/04 18:26:53;;;;;;;;;4.00;4.00;;;;;-143.90;73.14;73828.63;4988209;28;101689;-76
2023/08/04 18:29:20;;;;;;;;;5.67;5.00;;;;;-143.90;73.37;73841.03;4988715;28;102982;-77
2023/08/04 18:31:48;;;;;;;;;5.00;4.33;;;;;-143.90;75.29;73853.44;5008545;27;103313;-77
2023/08/04 18:34:16;;;;;;;;;4.67;4.67;;;;;-143.90;74.74;73865.84;5009908;27;101793;-77
2023/08/04 18:36:43;;;;;;;;;5.33;5.00;;;;;-143.90;74.22;73867.91;5003148;27;102412;-76
2023/08/04 18:39:10;;;;;;;;;5.00;4.00;;;;;-143.90;74.12;73869.97;5002318;27;101797;-76
2023/08/04 18:41:37;;;;;;;;;4.00;4.00;;;;;-143.90;74.49;73863.78;5016254;27;105112;-76
2023/08/04 18:44:09;;;;;;;;;3.00;3.00;;;;;-143.90;75.17;73853.44;5010362;27;101693;-77
2023/08/04 18:46:39;;;;;;;;;4.00;4.00;;;;;-143.90;74.96;73857.56;4992859;27;102470;-79
2023/08/04 18:49:11;;;;;;;;;1.67;1.67;;;;;-143.90;75.33;73865.84;4932648;28;102767;-80
2023/08/04 18:51:41;;;;;;;;;2.67;2.67;;;;;-143.90;75.32;73853.44;4954623;28;104688;-79
2023/08/04 18:54:08;;;;;;;;;1.67;1.67;;;;;-143.90;75.95;73851.38;4952754;28;102731;-79
2023/08/04 18:56:51;;;;;;;;;4.00;4.00;;;;;-143.90;77.46;73867.91;4948131;28;102592;-79
2023/08/04 18:59:19;;;;;;;;;5.67;5.67;;;;;-143.90;78.16;73882.38;4955307;28;102580;-79
2023/08/04 19:01:48;;;;;;;;;7.00;6.00;;;;;-143.90;77.90;73874.09;4981809;27;104845;-79
2023/08/04 19:04:15;;;;;;;;;5.00;4.00;;;;;-143.90;77.63;73882.38;4950919;28;102710;-79
2023/08/04 19:06:42;;;;;;;;;4.00;3.67;;;;;-143.90;76.66;73880.31;4950683;28;102585;-78
2023/08/04 19:09:20;;;;;;;;;3.00;3.00;;;;;-143.90;76.87;73882.38;4952463;28;102898;-78
2023/08/04 19:11:51;;;;;;;;;4.00;4.00;;;;;-143.90;75.64;73884.44;4948387;28;103619;-78
2023/08/04 19:14:18;;;;;;;;;4.00;4.00;;;;;-143.90;75.03;73886.50;4950440;28;102545;-79
2023/08/04 19:16:47;;;;;;;;;5.00;3.33;;;;;-143.90;74.67;73857.56;4947430;28;103069;-80
2023/08/04 19:19:17;;;;;;;;;2.33;2.33;;;;;-143.90;74.92;73859.63;4948207;28;102655;-78
2023/08/04 19:21:44;;;;;;;;;2.67;2.67;;;;;-143.90;75.32;73857.56;4950177;28;104489;-78
2023/08/04 19:24:13;;;;;;;;;2.00;2.00;;;;;-143.90;75.49;73869.97;4970281;27;102653;-80
2023/08/04 19:26:40;;;;;;;;;2.33;2.33;;;;;-143.90;75.80;73869.97;4955076;28;102835;-78
2023/08/04 19:29:08;;;;;;;;;2.00;2.00;;;;;-143.90;75.54;73896.84;4974359;27;102730;-78
2023/08/04 19:31:35;;;;;;;;;2.00;1.67;;;;;-143.90;75.91;73903.03;4933019;28;103237;-78
2023/08/04 19:34:02;;;;;;;;;3.00;3.00;;;;;-143.90;75.86;73915.44;4955736;28;102640;-77
2023/08/04 19:36:30;;;;;;;;;2.33;2.33;;;;;-143.90;75.78;73907.16;4951395;28;102596;-77
2023/08/04 19:38:57;;;;;;;;;2.00;2.00;;;;;-143.90;75.78;73907.16;4953150;28;102697;-77
2023/08/04 19:41:24;;;;;;;;;3.00;2.00;;;;;-143.90;75.94;73907.16;4931992;28;104769;-79
2023/08/04 19:44:22;;;;;;;;;2.00;2.00;;;;;-143.90;76.23;73911.31;4948412;28;102607;-78
2023/08/04 19:46:49;;;;;;;;;2.67;2.00;;;;;-143.90;76.04;73913.38;4949399;28;102924;-80
2023/08/04 19:49:17;;;;;;;;;2.00;2.00;;;;;-143.90;75.35;73917.50;4952264;28;102853;-79
2023/08/04 19:51:44;;;;;;;;;2.00;2.00;;;;;-143.90;75.32;73915.44;4934049;28;104451;-80
2023/08/04 19:54:12;;;;;;;;;2.00;1.00;;;;;-143.90;76.34;73909.25;4943458;28;102705;-81
2023/08/04 19:56:39;;;;;;;;;2.00;2.00;;;;;-143.90;75.70;73919.56;4951264;28;102611;-78
2023/08/04 19:59:06;;;;;;;;;4.00;3.00;;;;;-143.90;75.51;73927.84;4934101;28;102353;-79
2023/08/04 20:01:33;;;;;;;;;2.00;2.00;;;;;-143.90;75.27;73911.31;4952615;28;104768;-79
2023/08/04 20:04:00;;;;;;;;;2.00;2.00;;;;;-143.90;75.04;73905.09;4953399;28;102664;-79
2023/08/04 20:06:28;;;;;;;;;2.00;2.00;;;;;-143.90;74.98;73903.03;4956976;28;102680;-79
2023/08/04 20:08:55;;;;;;;;;1.67;1.67;;;;;-143.90;75.32;73907.16;4977762;28;102567;-78
2023/08/04 20:11:22;;;;;;;;;1.00;0.33;;;;;-143.90;74.90;73911.31;4946997;28;103641;-79
2023/08/04 20:13:50;;;;;;;;;0.00;0.00;;;;;-143.90;75.45;73907.16;4934090;28;102936;-78
2023/08/04 20:16:20;;;;;;;;;1.00;1.00;;;;;-143.90;75.21;73903.03;4934417;28;102164;-79
2023/08/04 20:18:48;;;;;;;;;0.00;0.00;;;;;-143.90;74.80;73911.31;4955401;28;102769;-79
2023/08/04 20:21:16;;;;;;;;;2.67;2.00;;;;;-143.90;74.83;73915.44;4952138;28;104215;-77
2023/08/04 20:23:43;;;;;;;;;2.33;1.33;;;;;-143.90;75.27;73923.72;4949013;28;102659;-78
2023/08/04 20:26:13;;;;;;;;;2.00;2.00;;;;;-143.90;74.65;73921.63;4974862;27;102130;-78
2023/08/04 20:28:42;;;;;;;;;1.67;1.67;;;;;-143.90;74.42;73915.44;4984581;27;101547;-79
2023/08/04 20:31:10;;;;;;;;;1.67;1.00;;;;;-143.90;74.71;73911.31;4949360;28;104437;-79
2023/08/04 20:33:39;;;;;;;;;1.00;1.00;;;;;-143.90;74.32;73903.03;4952153;28;102776;-80
2023/08/04 20:36:12;;;;;;;;;1.00;1.00;;;;;-143.90;74.25;73903.03;4952058;28;102508;-79
2023/08/04 20:38:40;;;;;;;;;2.00;1.00;;;;;-143.90;75.20;73907.16;4972694;27;102795;-79
2023/08/04 20:41:10;;;;;;;;;1.00;1.00;;;;;-143.90;75.01;73900.97;4997673;28;102912;-78
2023/08/04 20:43:39;;;;;;;;;1.67;1.33;;;;;-143.90;75.61;73911.31;5000935;27;101584;-78
2023/08/04 20:46:06;;;;;;;;;0.00;0.00;;;;;-143.90;75.30;73915.44;4989543;28;101791;-80
2023/08/04 20:48:51;;;;;;;;;2.00;1.33;;;;;-143.90;75.25;73919.56;5003429;27;102082;-79
2023/08/04 20:51:37;;;;;;;;;2.00;1.67;;;;;-143.90;75.11;73917.50;4998785;27;102142;-79
2023/08/04 20:54:17;;;;;;;;;2.00;1.67;;;;;-143.90;75.05;73919.56;5010639;27;101857;-79
2023/08/04 20:56:51;;;;;;;;;1.67;1.67;;;;;-143.90;74.84;73915.44;4990363;27;101775;-79
2023/08/04 20:59:18;;;;;;;;;4.00;4.00;;;;;-143.90;75.63;73923.72;5005332;27;101938;-78
2023/08/04 21:01:50;;;;;;;;;9.33;8.00;;;;;-143.90;74.42;73925.78;5002461;28;103535;-78
2023/08/04 21:04:28;;;;;;;;;9.67;8.33;;;;;-143.90;75.05;73940.25;5006716;27;102943;-79
2023/08/04 21:06:55;;;;;;;;;8.00;7.67;;;;;-143.90;75.10;73927.84;5005646;27;101506;-78
2023/08/04 21:09:23;;;;;;;;;5.00;5.00;;;;;-143.90;75.50;73921.63;5000853;27;101623;-79
2023/08/04 21:11:52;;;;;;;;;7.33;7.00;;;;;-143.90;74.25;73915.44;5000033;27;103293;-78
2023/08/04 21:14:20;;;;;;;;;4.67;4.00;;;;;-143.90;73.95;73909.25;5004757;28;101520;-80
2023/08/04 21:16:52;;;;;;;;;8.67;7.67;;;;;-143.90;73.24;73903.03;4970872;28;102943;-78
2023/08/04 21:19:33;;;;;;;;;5.00;5.00;;;;;-143.90;73.77;73898.91;5002635;27;101677;-79
2023/08/04 21:22:01;;;;;;;;;3.33;3.00;;;;;-143.90;73.15;73890.63;5002182;27;103444;-79
2023/08/04 21:24:28;;;;;;;;;4.00;3.00;;;;;-143.90;73.65;73903.03;4987220;28;101579;-79
2023/08/04 21:26:56;;;;;;;;;3.00;3.00;;;;;-143.90;73.69;73892.69;5003135;27;101773;-79
2023/08/04 21:29:24;;;;;;;;;4.00;4.00;;;;;-143.90;74.44;73915.44;5001601;27;101784;-79
2023/08/04 21:31:56;;;;;;;;;6.33;5.00;;;;;-143.90;74.06;73917.50;4999323;28;103208;-79
2023/08/04 21:34:23;;;;;;;;;10.67;8.67;;;;;-143.90;73.97;73913.38;5004596;27;101743;-79
2023/08/04 21:36:51;;;;;;;;;9.00;8.00;;;;;-143.90;74.31;73909.25;4998252;28;101967;-80
2023/08/04 21:39:26;;;;;;;;;4.00;4.00;;;;;-143.90;74.55;73923.72;5007298;27;101663;-78
2023/08/04 21:42:07;;;;;;;;;6.33;4.67;;;;;-143.90;74.76;73919.56;4988056;27;104489;-78
2023/08/04 21:44:34;;;;;;;;;4.00;4.00;;;;;-143.90;74.46;73919.56;4996889;27;101966;-78
2023/08/04 21:47:01;;;;;;;;;4.00;4.00;;;;;-143.90;75.02;73911.31;5005295;27;101643;-78
2023/08/04 21:49:28;;;;;;;;;5.00;4.00;;;;;-143.90;74.11;73923.72;5007678;27;101658;-78
2023/08/04 21:51:55;;;;;;;;;3.00;2.00;;;;;-143.90;74.68;73923.72;5011006;27;103080;-78
2023/08/04 21:54:23;;;;;;;;;3.33;3.00;;;;;-143.90;75.12;73940.25;5011280;27;101562;-78
2023/08/04 21:56:50;;;;;;;;;4.67;4.33;;;;;-143.90;75.24;73944.38;4994691;27;101564;-77
2023/08/04 21:59:17;;;;;;;;;6.00;5.00;;;;;-143.90;75.48;73948.50;5009829;27;102403;-77
2023/08/04 22:01:44;;;;;;;;;3.33;3.00;;;;;-143.90;74.37;73942.31;5004085;27;102727;-78
2023/08/04 22:04:12;;;;;;;;;5.00;4.33;;;;;-143.90;74.27;73936.09;5010522;27;101843;-78
2023/08/04 22:06:39;;;;;;;;;5.00;4.00;;;;;-143.90;74.33;73931.97;5009011;27;101680;-78
2023/08/04 22:09:06;;;;;;;;;3.67;3.67;;;;;-143.90;73.98;73927.84;4989893;28;101627;-80
2023/08/04 22:11:46;;;;;;;;;4.00;3.00;;;;;-143.90;74.47;73921.63;5013776;27;104972;-79
2023/08/04 22:14:31;;;;;;;;;6.00;6.00;;;;;-143.90;74.32;73931.97;5006254;27;101674;-77
2023/08/04 22:17:05;;;;;;;;;5.33;5.00;;;;;-143.90;74.32;73929.91;4981801;28;101590;-79
2023/08/04 22:19:38;;;;;;;;;3.33;3.33;;;;;-143.90;74.84;73923.72;5005494;27;101923;-79
2023/08/04 22:22:07;;;;;;;;;3.00;3.00;;;;;-143.90;74.50;73911.31;5004765;27;103408;-79
2023/08/04 22:24:35;;;;;;;;;4.00;4.00;;;;;-143.90;74.93;73919.56;5005168;27;101727;-79
2023/08/04 22:27:02;;;;;;;;;3.00;3.00;;;;;-143.90;74.80;73915.44;5003545;27;101840;-78
2023/08/04 22:29:29;;;;;;;;;3.00;2.67;;;;;-143.90;75.42;73927.84;4993175;27;101891;-78
2023/08/04 22:31:57;;;;;;;;;3.33;3.33;;;;;-143.90;75.99;73919.56;4987912;28;103375;-77
2023/08/04 22:34:24;;;;;;;;;4.33;2.33;;;;;-143.90;75.63;73923.72;5005165;28;101644;-78
2023/08/04 22:36:51;;;;;;;;;4.00;3.00;;;;;-143.90;75.64;73915.44;5004651;27;101507;-78
2023/08/04 22:39:18;;;;;;;;;4.00;3.00;;;;;-143.90;74.98;73919.56;5001883;27;102085;-80
2023/08/04 22:41:45;;;;;;;;;3.00;2.00;;;;;-143.90;74.56;73915.44;4987160;28;103607;-79
2023/08/04 22:44:21;;;;;;;;;3.67;3.00;;;;;-143.90;74.72;73915.44;5004562;27;101464;-79
2023/08/04 22:47:03;;;;;;;;;5.67;4.00;;;;;-143.90;74.87;73915.44;5001166;27;101772;-77
2023/08/04 22:49:31;;;;;;;;;2.33;2.33;;;;;-143.90;75.17;73913.38;5011608;27;102780;-79
2023/08/04 22:52:07;;;;;;;;;2.33;2.00;;;;;-143.90;75.25;73911.31;4984781;27;102575;-79
2023/08/04 22:54:45;;;;;;;;;3.00;3.00;;;;;-143.90;74.99;73907.16;4990015;27;101903;-80
2023/08/04 22:57:12;;;;;;;;;2.00;2.00;;;;;-143.90;74.82;73907.16;4990502;28;101836;-80
2023/08/04 22:59:39;;;;;;;;;7.00;5.00;;;;;-143.90;75.70;73923.72;5004375;27;101890;-78
2023/08/04 23:02:25;;;;;;;;;6.00;5.00;;;;;-143.90;75.75;73925.78;4975705;28;103060;-78
2023/08/04 23:05:14;;;;;;;;;6.00;6.00;;;;;-143.90;75.48;73923.72;5004171;28;101596;-78
2023/08/04 23:07:46;;;;;;;;;5.33;5.33;;;;;-143.90;75.45;73919.56;5004609;28;101561;-78
2023/08/04 23:10:31;;;;;;;;;6.33;6.33;;;;;-143.90;74.88;73927.84;5011617;28;101680;-80
2023/08/04 23:13:04;;;;;;;;;4.00;4.00;;;;;-143.90;75.32;73934.03;5007346;28;102501;-78
2023/08/04 23:15:46;;;;;;;;;6.67;6.00;;;;;-143.90;74.60;73929.91;5001039;28;101747;-78
2023/08/04 23:18:18;;;;;;;;;4.67;4.00;;;;;-143.90;74.68;73927.84;4993400;27;101869;-78
2023/08/04 23:20:51;;;;;;;;;6.00;5.33;;;;;-143.90;74.63;73936.09;4991425;28;101738;-79
2023/08/04 23:23:21;;;;;;;;;6.00;5.00;;;;;-143.90;74.52;73942.31;5002838;28;102351;-80
2023/08/04 23:25:53;;;;;;;;;7.67;7.00;;;;;-143.90;75.30;73931.97;5006907;27;101747;-79
2023/08/04 23:28:20;;;;;;;;;6.00;6.00;;;;;-143.90;75.24;73944.38;5012051;27;101762;-78
2023/08/04 23:30:51;;;;;;;;;5.67;5.00;;;;;-143.90;75.74;73942.31;5006728;27;103001;-79
2023/08/04 23:33:18;;;;;;;;;3.33;3.33;;;;;-143.90;76.16;73934.03;4990500;28;103238;-80
2023/08/04 23:35:55;;;;;;;;;5.00;4.00;;;;;-143.90;75.60;73925.78;5005925;27;101533;-79
2023/08/04 23:38:23;;;;;;;;;1.00;0.33;;;;;-143.90;75.26;73923.72;4988293;28;103334;-79
2023/08/04 23:41:00;;;;;;;;;2.33;2.00;;;;;-143.90;75.01;73915.44;5010832;28;102023;-79
2023/08/04 23:43:27;;;;;;;;;6.67;5.67;;;;;-143.90;75.39;73915.44;5003878;28;103497;-79
2023/08/04 23:45:54;;;;;;;;;5.00;4.33;;;;;-143.90;75.49;73915.44;5006421;27;101499;-80
2023/08/04 23:48:22;;;;;;;;;5.00;4.33;;;;;-143.90;75.48;73925.78;5003404;28;101836;-79
2023/08/04 23:50:49;;;;;;;;;4.67;4.67;;;;;-143.90;75.19;73925.78;5008963;27;102387;-80
2023/08/04 23:53:18;;;;;;;;;3.00;3.00;;;;;-143.90;74.87;73923.72;5005922;28;102683;-79
2023/08/04 23:55:45;;;;;;;;;4.33;4.00;;;;;-143.90;74.77;73917.50;5010087;27;101625;-80
2023/08/04 23:58:12;;;;;;;;;3.67;3.33;;;;;-143.90;75.06;73917.50;5013387;27;101597;-79
